Centerville, Iowa
Current Conditions -  °F | °C
As of 10:50 AM on Saturday 22 Nov 2014 (Local Time) from KTVK Reporting Station
Haze Haze  
Wind Chill: 46°   Ceiling: 100
Heat Index: 48°   Visibility: 1.2mi
Dew Point: 48°   Wind: 5mph
Humidity: 100%   Direction: 200°SSW
Pressure: 29.91"   Gusts: NA
Location:  40.73°N, 92.87°W
Report Text: KTVK 221650Z AUTO 20004KT 1 1/4SM BR OVC001 09/09 A2991 RMK AO2
Loading
Personal Weather Stations






























Interactive Weather Map New forecast layout! Learn more

10-Day Weather Forecast

Advertisements
Track Severe Weather on mobile